sensor_id;sensor_type;location;lat;lon;timestamp;P1;durP1;ratioP1;P2;durP2;ratioP2
15246;SDS011;7726;48.820;9.248;2022-11-11T00:00:23;9.07;;;5.43;;
15246;SDS011;7726;48.820;9.248;2022-11-11T00:02:50;8.23;;;5.30;;
15246;SDS011;7726;48.820;9.248;2022-11-11T00:05:18;6.43;;;5.63;;
15246;SDS011;7726;48.820;9.248;2022-11-11T00:07:46;10.73;;;5.43;;
15246;SDS011;7726;48.820;9.248;2022-11-11T00:10:14;7.57;;;5.90;;
15246;SDS011;7726;48.820;9.248;2022-11-11T00:12:42;7.63;;;5.13;;
15246;SDS011;7726;48.820;9.248;2022-11-11T00:15:09;9.60;;;5.50;;
15246;SDS011;7726;48.820;9.248;2022-11-11T00:17:38;7.00;;;6.13;;
15246;SDS011;7726;48.820;9.248;2022-11-11T00:20:23;7.37;;;6.23;;
15246;SDS011;7726;48.820;9.248;2022-11-11T00:23:08;9.77;;;7.07;;
15246;SDS011;7726;48.820;9.248;2022-11-11T00:25:58;11.53;;;7.03;;
15246;SDS011;7726;48.820;9.248;2022-11-11T00:28:29;11.47;;;7.70;;
15246;SDS011;7726;48.820;9.248;2022-11-11T00:31:02;8.80;;;7.37;;
15246;SDS011;7726;48.820;9.248;2022-11-11T00:33:31;10.57;;;8.60;;
15246;SDS011;7726;48.820;9.248;2022-11-11T00:35:59;11.13;;;8.27;;
15246;SDS011;7726;48.820;9.248;2022-11-11T00:38:25;10.20;;;6.77;;
15246;SDS011;7726;48.820;9.248;2022-11-11T00:41:12;10.87;;;7.10;;
15246;SDS011;7726;48.820;9.248;2022-11-11T00:43:39;11.67;;;6.47;;
15246;SDS011;7726;48.820;9.248;2022-11-11T00:46:06;9.90;;;6.90;;
15246;SDS011;7726;48.820;9.248;2022-11-11T00:48:53;10.90;;;6.50;;
15246;SDS011;7726;48.820;9.248;2022-11-11T00:51:38;10.83;;;6.50;;
15246;SDS011;7726;48.820;9.248;2022-11-11T00:54:05;10.13;;;6.13;;
15246;SDS011;7726;48.820;9.248;2022-11-11T00:56:33;7.67;;;6.73;;
15246;SDS011;7726;48.820;9.248;2022-11-11T00:59:01;7.03;;;5.93;;
15246;SDS011;7726;48.820;9.248;2022-11-11T01:01:29;10.70;;;6.60;;
15246;SDS011;7726;48.820;9.248;2022-11-11T01:03:58;8.70;;;6.50;;
15246;SDS011;7726;48.820;9.248;2022-11-11T01:06:25;9.30;;;6.63;;
15246;SDS011;7726;48.820;9.248;2022-11-11T01:08:52;8.97;;;6.60;;
15246;SDS011;7726;48.820;9.248;2022-11-11T01:11:20;12.33;;;6.50;;
15246;SDS011;7726;48.820;9.248;2022-11-11T01:13:48;13.33;;;6.97;;
15246;SDS011;7726;48.820;9.248;2022-11-11T01:16:16;10.27;;;6.60;;
15246;SDS011;7726;48.820;9.248;2022-11-11T01:18:43;10.63;;;7.67;;
15246;SDS011;7726;48.820;9.248;2022-11-11T01:21:13;9.23;;;5.70;;
15246;SDS011;7726;48.820;9.248;2022-11-11T01:23:40;8.77;;;5.50;;
15246;SDS011;7726;48.820;9.248;2022-11-11T01:26:10;7.53;;;5.87;;
15246;SDS011;7726;48.820;9.248;2022-11-11T01:28:38;6.83;;;5.77;;
15246;SDS011;7726;48.820;9.248;2022-11-11T01:31:06;8.47;;;5.93;;
15246;SDS011;7726;48.820;9.248;2022-11-11T01:33:34;10.20;;;6.00;;
15246;SDS011;7726;48.820;9.248;2022-11-11T01:36:05;12.23;;;7.30;;
15246;SDS011;7726;48.820;9.248;2022-11-11T01:38:34;7.50;;;6.70;;
15246;SDS011;7726;48.820;9.248;2022-11-11T01:41:01;7.70;;;6.90;;
15246;SDS011;7726;48.820;9.248;2022-11-11T01:43:50;8.73;;;6.33;;
15246;SDS011;7726;48.820;9.248;2022-11-11T01:46:20;8.23;;;6.60;;
15246;SDS011;7726;48.820;9.248;2022-11-11T01:48:50;11.07;;;6.40;;
15246;SDS011;7726;48.820;9.248;2022-11-11T01:51:38;7.33;;;6.10;;
15246;SDS011;7726;48.820;9.248;2022-11-11T01:54:09;7.23;;;5.87;;
15246;SDS011;7726;48.820;9.248;2022-11-11T01:56:38;7.83;;;5.57;;
15246;SDS011;7726;48.820;9.248;2022-11-11T01:59:07;7.43;;;5.67;;
15246;SDS011;7726;48.820;9.248;2022-11-11T02:01:35;13.57;;;6.67;;
15246;SDS011;7726;48.820;9.248;2022-11-11T02:04:02;10.77;;;6.90;;
15246;SDS011;7726;48.820;9.248;2022-11-11T02:06:48;7.27;;;6.57;;
15246;SDS011;7726;48.820;9.248;2022-11-11T02:09:18;9.63;;;6.23;;
15246;SDS011;7726;48.820;9.248;2022-11-11T02:11:45;9.73;;;6.33;;
15246;SDS011;7726;48.820;9.248;2022-11-11T02:14:30;8.97;;;6.07;;
15246;SDS011;7726;48.820;9.248;2022-11-11T02:17:07;9.03;;;6.50;;
15246;SDS011;7726;48.820;9.248;2022-11-11T02:19:37;8.90;;;5.83;;
15246;SDS011;7726;48.820;9.248;2022-11-11T02:22:07;7.20;;;5.77;;
15246;SDS011;7726;48.820;9.248;2022-11-11T02:24:38;8.67;;;5.83;;
15246;SDS011;7726;48.820;9.248;2022-11-11T02:27:07;6.17;;;5.50;;
15246;SDS011;7726;48.820;9.248;2022-11-11T02:29:36;10.00;;;5.63;;
15246;SDS011;7726;48.820;9.248;2022-11-11T02:32:03;5.57;;;4.53;;
15246;SDS011;7726;48.820;9.248;2022-11-11T02:34:31;6.17;;;4.70;;
15246;SDS011;7726;48.820;9.248;2022-11-11T02:36:58;6.70;;;4.80;;
15246;SDS011;7726;48.820;9.248;2022-11-11T02:39:27;6.53;;;4.60;;
15246;SDS011;7726;48.820;9.248;2022-11-11T02:41:56;7.13;;;4.80;;
15246;SDS011;7726;48.820;9.248;2022-11-11T02:44:23;9.67;;;5.00;;
15246;SDS011;7726;48.820;9.248;2022-11-11T02:46:50;9.00;;;4.80;;
15246;SDS011;7726;48.820;9.248;2022-11-11T02:49:17;7.00;;;4.97;;
15246;SDS011;7726;48.820;9.248;2022-11-11T02:51:44;6.70;;;4.70;;
15246;SDS011;7726;48.820;9.248;2022-11-11T02:54:12;8.57;;;5.03;;
15246;SDS011;7726;48.820;9.248;2022-11-11T02:56:39;6.20;;;4.80;;
15246;SDS011;7726;48.820;9.248;2022-11-11T02:59:26;9.03;;;4.77;;
15246;SDS011;7726;48.820;9.248;2022-11-11T03:01:53;6.87;;;4.83;;
15246;SDS011;7726;48.820;9.248;2022-11-11T03:04:20;8.60;;;4.70;;
15246;SDS011;7726;48.820;9.248;2022-11-11T03:06:47;8.27;;;4.80;;
15246;SDS011;7726;48.820;9.248;2022-11-11T03:09:14;7.30;;;4.70;;
15246;SDS011;7726;48.820;9.248;2022-11-11T03:11:41;5.40;;;4.37;;
15246;SDS011;7726;48.820;9.248;2022-11-11T03:14:09;6.10;;;4.07;;
15246;SDS011;7726;48.820;9.248;2022-11-11T03:16:37;6.17;;;4.57;;
15246;SDS011;7726;48.820;9.248;2022-11-11T03:19:22;6.53;;;4.50;;
15246;SDS011;7726;48.820;9.248;2022-11-11T03:21:49;6.27;;;4.27;;
15246;SDS011;7726;48.820;9.248;2022-11-11T03:24:16;5.83;;;4.37;;
15246;SDS011;7726;48.820;9.248;2022-11-11T03:26:43;5.00;;;4.50;;
15246;SDS011;7726;48.820;9.248;2022-11-11T03:29:10;5.10;;;3.87;;
15246;SDS011;7726;48.820;9.248;2022-11-11T03:31:38;7.30;;;4.13;;
15246;SDS011;7726;48.820;9.248;2022-11-11T03:34:05;4.73;;;3.93;;
15246;SDS011;7726;48.820;9.248;2022-11-11T03:36:44;5.53;;;4.10;;
15246;SDS011;7726;48.820;9.248;2022-11-11T03:39:29;7.63;;;4.10;;
15246;SDS011;7726;48.820;9.248;2022-11-11T03:41:56;6.67;;;4.20;;
15246;SDS011;7726;48.820;9.248;2022-11-11T03:44:24;6.03;;;3.80;;
15246;SDS011;7726;48.820;9.248;2022-11-11T03:46:53;5.20;;;4.23;;
15246;SDS011;7726;48.820;9.248;2022-11-11T03:49:20;8.93;;;5.00;;
15246;SDS011;7726;48.820;9.248;2022-11-11T03:51:48;6.33;;;4.83;;
15246;SDS011;7726;48.820;9.248;2022-11-11T03:54:15;6.20;;;5.53;;
15246;SDS011;7726;48.820;9.248;2022-11-11T03:56:42;8.47;;;6.10;;
15246;SDS011;7726;48.820;9.248;2022-11-11T03:59:09;7.40;;;5.73;;
15246;SDS011;7726;48.820;9.248;2022-11-11T04:01:36;8.37;;;5.70;;
15246;SDS011;7726;48.820;9.248;2022-11-11T04:04:22;7.40;;;5.90;;
15246;SDS011;7726;48.820;9.248;2022-11-11T04:07:08;6.83;;;5.10;;
15246;SDS011;7726;48.820;9.248;2022-11-11T04:09:49;7.60;;;4.83;;
15246;SDS011;7726;48.820;9.248;2022-11-11T04:12:34;5.70;;;4.10;;
15246;SDS011;7726;48.820;9.248;2022-11-11T04:15:22;5.10;;;4.60;;
15246;SDS011;7726;48.820;9.248;2022-11-11T04:18:06;5.73;;;3.67;;
15246;SDS011;7726;48.820;9.248;2022-11-11T04:20:35;6.63;;;3.90;;
15246;SDS011;7726;48.820;9.248;2022-11-11T04:23:19;5.47;;;4.13;;
15246;SDS011;7726;48.820;9.248;2022-11-11T04:25:47;7.80;;;4.13;;
15246;SDS011;7726;48.820;9.248;2022-11-11T04:28:13;5.50;;;4.03;;
15246;SDS011;7726;48.820;9.248;2022-11-11T04:30:57;5.30;;;4.00;;
15246;SDS011;7726;48.820;9.248;2022-11-11T04:33:25;5.03;;;3.80;;
15246;SDS011;7726;48.820;9.248;2022-11-11T04:35:52;4.93;;;3.70;;
15246;SDS011;7726;48.820;9.248;2022-11-11T04:38:19;8.20;;;4.17;;
15246;SDS011;7726;48.820;9.248;2022-11-11T04:41:04;6.47;;;3.90;;
15246;SDS011;7726;48.820;9.248;2022-11-11T04:43:33;5.47;;;3.97;;
15246;SDS011;7726;48.820;9.248;2022-11-11T04:46:21;6.97;;;4.40;;
15246;SDS011;7726;48.820;9.248;2022-11-11T04:48:47;5.33;;;4.57;;
15246;SDS011;7726;48.820;9.248;2022-11-11T04:51:15;8.57;;;3.93;;
15246;SDS011;7726;48.820;9.248;2022-11-11T04:53:43;6.00;;;4.50;;
15246;SDS011;7726;48.820;9.248;2022-11-11T04:56:10;6.93;;;4.10;;
15246;SDS011;7726;48.820;9.248;2022-11-11T04:58:55;6.07;;;4.77;;
15246;SDS011;7726;48.820;9.248;2022-11-11T05:01:36;6.20;;;5.43;;
15246;SDS011;7726;48.820;9.248;2022-11-11T05:04:21;11.27;;;5.73;;
15246;SDS011;7726;48.820;9.248;2022-11-11T05:06:49;7.13;;;5.40;;
15246;SDS011;7726;48.820;9.248;2022-11-11T05:09:34;5.60;;;4.80;;
15246;SDS011;7726;48.820;9.248;2022-11-11T05:12:01;4.80;;;4.27;;
15246;SDS011;7726;48.820;9.248;2022-11-11T05:14:28;4.83;;;4.00;;
15246;SDS011;7726;48.820;9.248;2022-11-11T05:17:13;4.33;;;3.93;;
15246;SDS011;7726;48.820;9.248;2022-11-11T05:19:58;4.67;;;4.17;;
15246;SDS011;7726;48.820;9.248;2022-11-11T05:22:44;4.87;;;4.20;;
15246;SDS011;7726;48.820;9.248;2022-11-11T05:25:11;7.13;;;5.83;;
15246;SDS011;7726;48.820;9.248;2022-11-11T05:27:49;8.07;;;5.17;;
15246;SDS011;7726;48.820;9.248;2022-11-11T05:30:16;6.10;;;4.83;;
15246;SDS011;7726;48.820;9.248;2022-11-11T05:32:44;6.23;;;5.33;;
15246;SDS011;7726;48.820;9.248;2022-11-11T05:35:11;7.27;;;5.50;;
15246;SDS011;7726;48.820;9.248;2022-11-11T05:37:39;7.73;;;5.63;;
15246;SDS011;7726;48.820;9.248;2022-11-11T05:40:08;5.87;;;5.30;;
15246;SDS011;7726;48.820;9.248;2022-11-11T05:42:39;7.63;;;5.87;;
15246;SDS011;7726;48.820;9.248;2022-11-11T05:45:06;6.60;;;5.83;;
15246;SDS011;7726;48.820;9.248;2022-11-11T05:47:34;6.63;;;5.37;;
15246;SDS011;7726;48.820;9.248;2022-11-11T05:50:01;7.80;;;5.50;;
15246;SDS011;7726;48.820;9.248;2022-11-11T05:52:28;9.33;;;6.27;;
15246;SDS011;7726;48.820;9.248;2022-11-11T05:54:56;7.07;;;5.60;;
15246;SDS011;7726;48.820;9.248;2022-11-11T05:57:25;7.33;;;5.80;;
15246;SDS011;7726;48.820;9.248;2022-11-11T05:59:52;6.67;;;5.60;;
15246;SDS011;7726;48.820;9.248;2022-11-11T06:02:19;9.17;;;5.90;;
15246;SDS011;7726;48.820;9.248;2022-11-11T06:04:46;7.87;;;6.33;;
15246;SDS011;7726;48.820;9.248;2022-11-11T06:07:13;7.07;;;6.30;;
15246;SDS011;7726;48.820;9.248;2022-11-11T06:09:40;6.10;;;5.50;;
15246;SDS011;7726;48.820;9.248;2022-11-11T06:12:08;10.00;;;6.70;;
15246;SDS011;7726;48.820;9.248;2022-11-11T06:14:36;9.67;;;6.03;;
15246;SDS011;7726;48.820;9.248;2022-11-11T06:17:03;9.77;;;5.90;;
15246;SDS011;7726;48.820;9.248;2022-11-11T06:19:30;6.60;;;6.00;;
15246;SDS011;7726;48.820;9.248;2022-11-11T06:21:57;7.43;;;6.30;;
15246;SDS011;7726;48.820;9.248;2022-11-11T06:24:28;10.30;;;7.20;;
15246;SDS011;7726;48.820;9.248;2022-11-11T06:26:55;7.17;;;6.17;;
15246;SDS011;7726;48.820;9.248;2022-11-11T06:29:21;8.83;;;6.50;;
15246;SDS011;7726;48.820;9.248;2022-11-11T06:31:50;7.07;;;5.60;;
15246;SDS011;7726;48.820;9.248;2022-11-11T06:34:17;8.10;;;6.50;;
15246;SDS011;7726;48.820;9.248;2022-11-11T06:36:44;8.50;;;6.67;;
15246;SDS011;7726;48.820;9.248;2022-11-11T06:39:11;10.63;;;7.00;;
15246;SDS011;7726;48.820;9.248;2022-11-11T06:41:38;8.67;;;6.30;;
15246;SDS011;7726;48.820;9.248;2022-11-11T06:44:05;8.13;;;5.70;;
15246;SDS011;7726;48.820;9.248;2022-11-11T06:46:32;8.83;;;6.40;;
15246;SDS011;7726;48.820;9.248;2022-11-11T06:49:01;10.40;;;6.27;;
15246;SDS011;7726;48.820;9.248;2022-11-11T06:51:28;6.80;;;5.80;;
15246;SDS011;7726;48.820;9.248;2022-11-11T06:53:55;10.73;;;5.97;;
15246;SDS011;7726;48.820;9.248;2022-11-11T06:56:22;8.47;;;6.67;;
15246;SDS011;7726;48.820;9.248;2022-11-11T06:58:50;9.73;;;7.50;;
15246;SDS011;7726;48.820;9.248;2022-11-11T07:01:20;8.37;;;7.13;;
15246;SDS011;7726;48.820;9.248;2022-11-11T07:03:47;7.50;;;6.70;;
15246;SDS011;7726;48.820;9.248;2022-11-11T07:06:15;7.47;;;6.03;;
15246;SDS011;7726;48.820;9.248;2022-11-11T07:08:42;6.93;;;6.20;;
15246;SDS011;7726;48.820;9.248;2022-11-11T07:11:10;7.23;;;6.23;;
15246;SDS011;7726;48.820;9.248;2022-11-11T07:13:38;9.10;;;6.17;;
15246;SDS011;7726;48.820;9.248;2022-11-11T07:16:05;7.77;;;5.90;;
15246;SDS011;7726;48.820;9.248;2022-11-11T07:18:34;6.73;;;5.10;;
15246;SDS011;7726;48.820;9.248;2022-11-11T07:21:01;6.10;;;5.53;;
15246;SDS011;7726;48.820;9.248;2022-11-11T07:23:29;6.23;;;5.63;;
15246;SDS011;7726;48.820;9.248;2022-11-11T07:25:56;7.47;;;5.63;;
15246;SDS011;7726;48.820;9.248;2022-11-11T07:28:23;6.27;;;5.67;;
15246;SDS011;7726;48.820;9.248;2022-11-11T07:30:51;10.13;;;6.50;;
15246;SDS011;7726;48.820;9.248;2022-11-11T07:33:18;7.27;;;6.07;;
15246;SDS011;7726;48.820;9.248;2022-11-11T07:35:45;6.70;;;5.73;;
15246;SDS011;7726;48.820;9.248;2022-11-11T07:38:12;7.80;;;6.00;;
15246;SDS011;7726;48.820;9.248;2022-11-11T07:40:41;7.77;;;5.67;;
15246;SDS011;7726;48.820;9.248;2022-11-11T07:43:08;6.93;;;5.60;;
15246;SDS011;7726;48.820;9.248;2022-11-11T07:45:35;6.37;;;5.47;;
15246;SDS011;7726;48.820;9.248;2022-11-11T07:48:02;6.00;;;5.40;;
15246;SDS011;7726;48.820;9.248;2022-11-11T07:50:29;6.33;;;5.13;;
15246;SDS011;7726;48.820;9.248;2022-11-11T07:52:57;5.93;;;5.33;;
15246;SDS011;7726;48.820;9.248;2022-11-11T07:55:24;6.67;;;5.50;;
15246;SDS011;7726;48.820;9.248;2022-11-11T07:57:52;7.20;;;5.47;;
15246;SDS011;7726;48.820;9.248;2022-11-11T08:00:19;6.47;;;5.17;;
15246;SDS011;7726;48.820;9.248;2022-11-11T08:02:47;5.60;;;5.10;;
15246;SDS011;7726;48.820;9.248;2022-11-11T08:05:14;8.17;;;6.23;;
15246;SDS011;7726;48.820;9.248;2022-11-11T08:07:41;6.53;;;4.90;;
15246;SDS011;7726;48.820;9.248;2022-11-11T08:10:09;6.83;;;5.47;;
15246;SDS011;7726;48.820;9.248;2022-11-11T08:12:36;5.93;;;5.23;;
15246;SDS011;7726;48.820;9.248;2022-11-11T08:15:22;6.23;;;5.00;;
15246;SDS011;7726;48.820;9.248;2022-11-11T08:17:49;6.07;;;4.87;;
15246;SDS011;7726;48.820;9.248;2022-11-11T08:20:16;5.90;;;5.30;;
15246;SDS011;7726;48.820;9.248;2022-11-11T08:22:43;5.30;;;4.80;;
15246;SDS011;7726;48.820;9.248;2022-11-11T08:25:11;6.87;;;4.53;;
15246;SDS011;7726;48.820;9.248;2022-11-11T08:27:39;6.17;;;4.13;;
15246;SDS011;7726;48.820;9.248;2022-11-11T08:30:06;5.20;;;4.80;;
15246;SDS011;7726;48.820;9.248;2022-11-11T08:32:35;5.53;;;5.03;;
15246;SDS011;7726;48.820;9.248;2022-11-11T08:35:02;6.93;;;5.63;;
15246;SDS011;7726;48.820;9.248;2022-11-11T08:37:30;7.00;;;4.47;;
15246;SDS011;7726;48.820;9.248;2022-11-11T08:39:57;5.80;;;5.20;;
15246;SDS011;7726;48.820;9.248;2022-11-11T08:42:24;6.90;;;5.40;;
15246;SDS011;7726;48.820;9.248;2022-11-11T08:44:52;5.57;;;3.93;;
15246;SDS011;7726;48.820;9.248;2022-11-11T08:47:19;4.43;;;4.00;;
15246;SDS011;7726;48.820;9.248;2022-11-11T08:49:50;5.83;;;4.23;;
15246;SDS011;7726;48.820;9.248;2022-11-11T08:52:17;7.47;;;4.23;;
15246;SDS011;7726;48.820;9.248;2022-11-11T08:54:44;8.33;;;4.83;;
15246;SDS011;7726;48.820;9.248;2022-11-11T08:57:11;6.03;;;4.50;;
15246;SDS011;7726;48.820;9.248;2022-11-11T08:59:38;4.37;;;3.97;;
15246;SDS011;7726;48.820;9.248;2022-11-11T09:02:08;6.77;;;4.10;;
15246;SDS011;7726;48.820;9.248;2022-11-11T09:04:35;6.00;;;4.30;;
15246;SDS011;7726;48.820;9.248;2022-11-11T09:07:04;5.57;;;4.80;;
15246;SDS011;7726;48.820;9.248;2022-11-11T09:09:31;5.13;;;4.50;;
15246;SDS011;7726;48.820;9.248;2022-11-11T09:11:59;6.17;;;4.60;;
15246;SDS011;7726;48.820;9.248;2022-11-11T09:14:26;5.30;;;4.30;;
15246;SDS011;7726;48.820;9.248;2022-11-11T09:16:53;5.23;;;4.50;;
15246;SDS011;7726;48.820;9.248;2022-11-11T09:19:20;5.00;;;4.50;;
15246;SDS011;7726;48.820;9.248;2022-11-11T09:21:49;8.40;;;4.20;;
15246;SDS011;7726;48.820;9.248;2022-11-11T09:24:18;5.30;;;3.80;;
15246;SDS011;7726;48.820;9.248;2022-11-11T09:26:46;4.57;;;3.97;;
15246;SDS011;7726;48.820;9.248;2022-11-11T09:29:13;5.53;;;3.87;;
15246;SDS011;7726;48.820;9.248;2022-11-11T09:31:40;4.10;;;3.23;;
15246;SDS011;7726;48.820;9.248;2022-11-11T09:34:08;4.80;;;3.63;;
15246;SDS011;7726;48.820;9.248;2022-11-11T09:36:35;6.13;;;3.53;;
15246;SDS011;7726;48.820;9.248;2022-11-11T09:39:02;4.40;;;3.47;;
15246;SDS011;7726;48.820;9.248;2022-11-11T09:41:34;3.87;;;3.43;;
15246;SDS011;7726;48.820;9.248;2022-11-11T09:44:04;5.03;;;3.80;;
15246;SDS011;7726;48.820;9.248;2022-11-11T09:46:33;4.40;;;4.00;;
15246;SDS011;7726;48.820;9.248;2022-11-11T09:49:09;5.93;;;3.80;;
15246;SDS011;7726;48.820;9.248;2022-11-11T09:51:41;4.70;;;4.00;;
15246;SDS011;7726;48.820;9.248;2022-11-11T09:54:11;4.33;;;3.93;;
15246;SDS011;7726;48.820;9.248;2022-11-11T09:56:41;4.73;;;4.30;;
15246;SDS011;7726;48.820;9.248;2022-11-11T09:59:10;5.50;;;4.57;;
15246;SDS011;7726;48.820;9.248;2022-11-11T10:01:41;5.80;;;4.53;;
15246;SDS011;7726;48.820;9.248;2022-11-11T10:04:14;4.40;;;4.00;;
15246;SDS011;7726;48.820;9.248;2022-11-11T10:06:43;7.57;;;4.70;;
15246;SDS011;7726;48.820;9.248;2022-11-11T10:09:13;5.13;;;3.60;;
15246;SDS011;7726;48.820;9.248;2022-11-11T10:11:46;5.27;;;4.00;;
15246;SDS011;7726;48.820;9.248;2022-11-11T10:14:14;6.17;;;3.30;;
15246;SDS011;7726;48.820;9.248;2022-11-11T10:16:44;4.37;;;3.33;;
15246;SDS011;7726;48.820;9.248;2022-11-11T10:19:15;3.70;;;3.40;;
15246;SDS011;7726;48.820;9.248;2022-11-11T10:21:47;5.10;;;3.57;;
15246;SDS011;7726;48.820;9.248;2022-11-11T10:24:27;6.80;;;4.20;;
15246;SDS011;7726;48.820;9.248;2022-11-11T10:26:55;4.23;;;3.57;;
15246;SDS011;7726;48.820;9.248;2022-11-11T10:29:25;5.03;;;4.20;;
15246;SDS011;7726;48.820;9.248;2022-11-11T10:31:57;7.03;;;3.33;;
15246;SDS011;7726;48.820;9.248;2022-11-11T10:34:28;5.90;;;3.47;;
15246;SDS011;7726;48.820;9.248;2022-11-11T10:36:58;6.63;;;3.73;;
15246;SDS011;7726;48.820;9.248;2022-11-11T10:39:26;4.17;;;2.93;;
15246;SDS011;7726;48.820;9.248;2022-11-11T10:41:57;4.10;;;3.20;;
15246;SDS011;7726;48.820;9.248;2022-11-11T10:44:25;4.60;;;3.10;;
15246;SDS011;7726;48.820;9.248;2022-11-11T10:46:55;4.40;;;3.70;;
15246;SDS011;7726;48.820;9.248;2022-11-11T10:49:24;7.13;;;3.83;;
15246;SDS011;7726;48.820;9.248;2022-11-11T10:51:54;5.23;;;4.10;;
15246;SDS011;7726;48.820;9.248;2022-11-11T10:54:23;4.37;;;3.33;;
15246;SDS011;7726;48.820;9.248;2022-11-11T10:56:53;4.53;;;3.50;;
15246;SDS011;7726;48.820;9.248;2022-11-11T10:59:25;4.30;;;3.60;;
15246;SDS011;7726;48.820;9.248;2022-11-11T11:01:54;5.10;;;2.90;;
15246;SDS011;7726;48.820;9.248;2022-11-11T11:04:25;6.07;;;3.40;;
15246;SDS011;7726;48.820;9.248;2022-11-11T11:06:55;7.27;;;3.53;;
15246;SDS011;7726;48.820;9.248;2022-11-11T11:09:25;4.70;;;3.80;;
15246;SDS011;7726;48.820;9.248;2022-11-11T11:11:53;4.33;;;3.53;;
15246;SDS011;7726;48.820;9.248;2022-11-11T11:14:23;3.70;;;3.40;;
15246;SDS011;7726;48.820;9.248;2022-11-11T11:16:53;3.83;;;3.33;;
15246;SDS011;7726;48.820;9.248;2022-11-11T11:19:25;8.87;;;3.43;;
15246;SDS011;7726;48.820;9.248;2022-11-11T11:21:53;3.47;;;3.10;;
15246;SDS011;7726;48.820;9.248;2022-11-11T11:24:21;4.47;;;3.23;;
15246;SDS011;7726;48.820;9.248;2022-11-11T11:26:49;3.60;;;3.10;;
15246;SDS011;7726;48.820;9.248;2022-11-11T11:29:23;4.77;;;3.40;;
15246;SDS011;7726;48.820;9.248;2022-11-11T11:31:51;4.10;;;3.60;;
15246;SDS011;7726;48.820;9.248;2022-11-11T11:34:20;4.00;;;3.23;;
15246;SDS011;7726;48.820;9.248;2022-11-11T11:36:58;6.50;;;3.30;;
15246;SDS011;7726;48.820;9.248;2022-11-11T11:39:32;3.83;;;3.40;;
15246;SDS011;7726;48.820;9.248;2022-11-11T11:41:59;3.80;;;3.50;;
15246;SDS011;7726;48.820;9.248;2022-11-11T11:44:27;4.27;;;3.40;;
15246;SDS011;7726;48.820;9.248;2022-11-11T11:46:57;6.73;;;3.60;;
15246;SDS011;7726;48.820;9.248;2022-11-11T11:49:29;6.23;;;4.03;;
15246;SDS011;7726;48.820;9.248;2022-11-11T11:52:02;3.63;;;3.33;;
15246;SDS011;7726;48.820;9.248;2022-11-11T11:54:41;5.50;;;4.10;;
15246;SDS011;7726;48.820;9.248;2022-11-11T11:57:13;6.67;;;3.83;;
15246;SDS011;7726;48.820;9.248;2022-11-11T11:59:45;6.18;;;3.70;;
15246;SDS011;7726;48.820;9.248;2022-11-11T12:02:21;4.90;;;3.77;;
15246;SDS011;7726;48.820;9.248;2022-11-11T12:05:02;5.40;;;3.63;;
15246;SDS011;7726;48.820;9.248;2022-11-11T12:07:37;5.10;;;3.00;;
15246;SDS011;7726;48.820;9.248;2022-11-11T12:10:23;3.40;;;3.07;;
15246;SDS011;7726;48.820;9.248;2022-11-11T12:12:52;5.37;;;3.23;;
15246;SDS011;7726;48.820;9.248;2022-11-11T12:15:24;4.35;;;3.00;;
15246;SDS011;7726;48.820;9.248;2022-11-11T12:17:55;3.55;;;2.83;;
15246;SDS011;7726;48.820;9.248;2022-11-11T12:20:25;3.17;;;2.87;;
15246;SDS011;7726;48.820;9.248;2022-11-11T12:23:00;3.17;;;2.72;;
15246;SDS011;7726;48.820;9.248;2022-11-11T12:25:35;2.95;;;2.30;;
15246;SDS011;7726;48.820;9.248;2022-11-11T12:28:06;5.90;;;3.05;;
15246;SDS011;7726;48.820;9.248;2022-11-11T12:30:36;3.27;;;2.90;;
15246;SDS011;7726;48.820;9.248;2022-11-11T12:33:10;3.73;;;2.80;;
15246;SDS011;7726;48.820;9.248;2022-11-11T12:35:47;3.17;;;2.88;;
15246;SDS011;7726;48.820;9.248;2022-11-11T12:38:21;4.10;;;2.90;;
15246;SDS011;7726;48.820;9.248;2022-11-11T12:40:54;3.73;;;2.80;;
15246;SDS011;7726;48.820;9.248;2022-11-11T12:43:24;5.32;;;2.90;;
15246;SDS011;7726;48.820;9.248;2022-11-11T12:45:55;3.47;;;2.50;;
15246;SDS011;7726;48.820;9.248;2022-11-11T12:48:35;3.73;;;2.63;;
15246;SDS011;7726;48.820;9.248;2022-11-11T12:51:08;4.23;;;2.57;;
15246;SDS011;7726;48.820;9.248;2022-11-11T12:53:39;5.97;;;2.93;;
15246;SDS011;7726;48.820;9.248;2022-11-11T12:56:12;4.40;;;2.78;;
15246;SDS011;7726;48.820;9.248;2022-11-11T12:58:44;4.57;;;2.80;;
15246;SDS011;7726;48.820;9.248;2022-11-11T13:01:17;3.13;;;2.83;;
15246;SDS011;7726;48.820;9.248;2022-11-11T13:03:48;4.63;;;2.70;;
15246;SDS011;7726;48.820;9.248;2022-11-11T13:06:24;4.40;;;2.40;;
15246;SDS011;7726;48.820;9.248;2022-11-11T13:09:00;4.78;;;3.00;;
15246;SDS011;7726;48.820;9.248;2022-11-11T13:11:32;6.05;;;2.67;;
15246;SDS011;7726;48.820;9.248;2022-11-11T13:14:07;5.27;;;2.40;;
15246;SDS011;7726;48.820;9.248;2022-11-11T13:16:36;2.63;;;2.30;;
15246;SDS011;7726;48.820;9.248;2022-11-11T13:19:04;2.22;;;2.00;;
15246;SDS011;7726;48.820;9.248;2022-11-11T13:21:35;4.53;;;2.30;;
15246;SDS011;7726;48.820;9.248;2022-11-11T13:24:07;3.05;;;2.42;;
15246;SDS011;7726;48.820;9.248;2022-11-11T13:26:37;6.22;;;2.60;;
15246;SDS011;7726;48.820;9.248;2022-11-11T13:29:12;3.90;;;2.38;;
15246;SDS011;7726;48.820;9.248;2022-11-11T13:31:42;5.05;;;1.90;;
15246;SDS011;7726;48.820;9.248;2022-11-11T13:34:11;3.55;;;2.30;;
15246;SDS011;7726;48.820;9.248;2022-11-11T13:36:41;3.67;;;2.38;;
15246;SDS011;7726;48.820;9.248;2022-11-11T13:39:17;7.82;;;2.90;;
15246;SDS011;7726;48.820;9.248;2022-11-11T13:41:48;3.88;;;2.53;;
15246;SDS011;7726;48.820;9.248;2022-11-11T13:44:18;4.25;;;2.60;;
15246;SDS011;7726;48.820;9.248;2022-11-11T13:46:49;3.03;;;2.20;;
15246;SDS011;7726;48.820;9.248;2022-11-11T13:49:20;2.38;;;2.17;;
15246;SDS011;7726;48.820;9.248;2022-11-11T13:51:57;3.67;;;2.53;;
15246;SDS011;7726;48.820;9.248;2022-11-11T13:54:25;4.72;;;2.30;;
15246;SDS011;7726;48.820;9.248;2022-11-11T13:56:54;4.43;;;2.35;;
15246;SDS011;7726;48.820;9.248;2022-11-11T13:59:28;4.13;;;2.08;;
15246;SDS011;7726;48.820;9.248;2022-11-11T14:02:11;3.78;;;2.22;;
15246;SDS011;7726;48.820;9.248;2022-11-11T14:10:07;3.35;;;2.28;;
15246;SDS011;7726;48.820;9.248;2022-11-11T14:12:39;2.85;;;2.28;;
15246;SDS011;7726;48.820;9.248;2022-11-11T14:17:52;3.33;;;2.35;;
15246;SDS011;7726;48.820;9.248;2022-11-11T14:20:32;3.10;;;2.20;;
15246;SDS011;7726;48.820;9.248;2022-11-11T14:23:13;5.75;;;2.40;;
15246;SDS011;7726;48.820;9.248;2022-11-11T14:25:43;3.80;;;2.28;;
15246;SDS011;7726;48.820;9.248;2022-11-11T14:28:18;2.80;;;2.10;;
15246;SDS011;7726;48.820;9.248;2022-11-11T14:30:46;5.10;;;2.42;;
15246;SDS011;7726;48.820;9.248;2022-11-11T14:33:15;4.28;;;2.30;;
15246;SDS011;7726;48.820;9.248;2022-11-11T14:35:47;3.40;;;2.50;;
15246;SDS011;7726;48.820;9.248;2022-11-11T14:43:48;5.03;;;2.47;;
15246;SDS011;7726;48.820;9.248;2022-11-11T14:46:15;6.15;;;2.92;;
15246;SDS011;7726;48.820;9.248;2022-11-11T14:48:58;2.95;;;2.50;;
15246;SDS011;7726;48.820;9.248;2022-11-11T14:54:15;4.40;;;2.42;;
15246;SDS011;7726;48.820;9.248;2022-11-11T14:56:43;2.67;;;2.45;;
15246;SDS011;7726;48.820;9.248;2022-11-11T14:59:11;4.65;;;2.85;;
15246;SDS011;7726;48.820;9.248;2022-11-11T15:01:42;6.45;;;2.70;;
15246;SDS011;7726;48.820;9.248;2022-11-11T15:04:11;4.00;;;2.83;;
15246;SDS011;7726;48.820;9.248;2022-11-11T15:06:40;6.30;;;2.67;;
15246;SDS011;7726;48.820;9.248;2022-11-11T15:09:11;4.95;;;2.78;;
15246;SDS011;7726;48.820;9.248;2022-11-11T15:11:43;5.80;;;2.72;;
15246;SDS011;7726;48.820;9.248;2022-11-11T15:14:19;4.75;;;2.42;;
15246;SDS011;7726;48.820;9.248;2022-11-11T15:16:57;5.07;;;2.92;;
15246;SDS011;7726;48.820;9.248;2022-11-11T15:19:38;4.50;;;3.17;;
15246;SDS011;7726;48.820;9.248;2022-11-11T15:22:23;5.93;;;2.40;;
15246;SDS011;7726;48.820;9.248;2022-11-11T15:24:53;5.97;;;2.95;;
15246;SDS011;7726;48.820;9.248;2022-11-11T15:27:25;4.07;;;2.80;;
15246;SDS011;7726;48.820;9.248;2022-11-11T15:32:42;4.15;;;2.58;;
15246;SDS011;7726;48.820;9.248;2022-11-11T15:35:22;4.18;;;2.58;;
15246;SDS011;7726;48.820;9.248;2022-11-11T15:37:51;3.78;;;2.63;;
15246;SDS011;7726;48.820;9.248;2022-11-11T15:40:19;3.10;;;2.80;;